createdAt,value
2023-05-04T00:01:20.232Z,101851.52
2023-05-04T00:03:48.713Z,101846.34
2023-05-04T00:06:17.080Z,101843.05
2023-05-04T00:08:45.316Z,101839.93
2023-05-04T00:11:13.484Z,101833.89
2023-05-04T00:13:41.861Z,101827.30
2023-05-04T00:16:11.078Z,101825.11
2023-05-04T00:18:39.515Z,101820.20
2023-05-04T00:21:08.222Z,101818.20
2023-05-04T00:23:36.576Z,101817.30
2023-05-04T00:26:05.057Z,101810.04
2023-05-04T00:28:33.381Z,101809.40
2023-05-04T00:31:02.321Z,101811.04
2023-05-04T00:33:30.502Z,101813.17
2023-05-04T00:35:58.684Z,101808.52
2023-05-04T00:38:26.927Z,101806.95
2023-05-04T00:40:55.134Z,101808.39
2023-05-04T00:43:23.316Z,101809.02
2023-05-04T00:45:51.545Z,101815.48
2023-05-04T00:48:20.047Z,101816.48
2023-05-04T00:50:48.225Z,101815.66
2023-05-04T00:53:16.583Z,101813.83
2023-05-04T00:55:45.131Z,101810.78
2023-05-04T00:58:13.352Z,101802.81
2023-05-04T01:00:41.718Z,101807.95
2023-05-04T01:03:10.525Z,101814.21
2023-05-04T01:05:43.841Z,101813.70
2023-05-04T01:08:18.242Z,101812.59
2023-05-04T01:11:04.853Z,101807.37
2023-05-04T01:13:35.389Z,101800.73
2023-05-04T01:16:03.711Z,101795.86
2023-05-04T01:18:31.960Z,101793.60
2023-05-04T01:21:00.242Z,101791.09
2023-05-04T01:23:28.518Z,101790.73
2023-05-04T01:26:21.607Z,101791.54
2023-05-04T01:28:53.399Z,101786.80
2023-05-04T01:31:23.544Z,101787.32
2023-05-04T01:33:53.938Z,101787.63
2023-05-04T01:36:22.699Z,101787.44
2023-05-04T01:38:55.099Z,101786.90
2023-05-04T01:41:23.351Z,101776.73
2023-05-04T01:43:51.702Z,101779.51
2023-05-04T01:46:20.276Z,101781.30
2023-05-04T01:48:48.589Z,101775.94
2023-05-04T01:51:16.738Z,101782.31
2023-05-04T01:53:44.981Z,101776.91
2023-05-04T01:56:13.400Z,101769.02
2023-05-04T01:58:41.918Z,101772.23
2023-05-04T02:01:10.080Z,101770.01
2023-05-04T02:03:38.421Z,101769.11
2023-05-04T02:06:07.312Z,101764.27
2023-05-04T02:08:35.522Z,101762.71
2023-05-04T02:11:03.772Z,101760.44
2023-05-04T02:13:32.021Z,101754.54
2023-05-04T02:16:00.247Z,101757.58
2023-05-04T02:18:28.529Z,101759.08
2023-05-04T02:20:56.737Z,101762.59
2023-05-04T02:23:25.004Z,101762.28
2023-05-04T02:25:55.212Z,101763.27
2023-05-04T02:28:23.440Z,101762.96
2023-05-04T02:30:51.723Z,101759.13
2023-05-04T02:33:19.994Z,101759.03
2023-05-04T02:35:48.176Z,101757.23
2023-05-04T02:38:16.341Z,101755.25
2023-05-04T02:40:45.085Z,101753.21
2023-05-04T02:43:13.317Z,101751.52
2023-05-04T02:45:41.644Z,101753.57
2023-05-04T02:48:09.861Z,101751.92
2023-05-04T02:50:38.106Z,101752.17
2023-05-04T02:53:06.345Z,101748.94
2023-05-04T02:55:34.582Z,101750.31
2023-05-04T02:58:02.844Z,101755.38
2023-05-04T03:00:31.078Z,101753.41
2023-05-04T03:02:59.284Z,101754.55
2023-05-04T03:05:27.504Z,101748.85
2023-05-04T03:07:55.674Z,101747.17
2023-05-04T03:10:23.973Z,101747.89
2023-05-04T03:12:52.390Z,101742.13
2023-05-04T03:15:20.660Z,101745.27
2023-05-04T03:17:48.907Z,101743.86
2023-05-04T03:20:17.341Z,101741.39
2023-05-04T03:22:45.558Z,101743.16
2023-05-04T03:25:13.776Z,101744.75
2023-05-04T03:27:42.002Z,101745.44
2023-05-04T03:30:10.895Z,101746.30
2023-05-04T03:32:40.892Z,101747.40
2023-05-04T03:35:12.203Z,101748.99
2023-05-04T03:37:40.550Z,101748.27
2023-05-04T03:40:09.398Z,101744.77
2023-05-04T03:42:38.382Z,101737.16
2023-05-04T03:45:07.265Z,101726.42
2023-05-04T03:47:35.523Z,101717.95
2023-05-04T03:50:04.392Z,101718.39
2023-05-04T03:52:32.755Z,101720.86
2023-05-04T03:55:01.111Z,101727.54
2023-05-04T03:57:29.377Z,101731.19
2023-05-04T03:59:58.024Z,101734.64
2023-05-04T04:02:26.518Z,101725.05
2023-05-04T04:04:54.777Z,101720.70
2023-05-04T04:07:22.979Z,101727.70
2023-05-04T04:09:52.545Z,101729.33
2023-05-04T04:12:21.076Z,101733.02
2023-05-04T04:14:49.289Z,101737.73
2023-05-04T04:17:17.671Z,101742.77
2023-05-04T04:19:45.957Z,101729.59
2023-05-04T04:22:14.242Z,101733.27
2023-05-04T04:24:42.430Z,101733.05
2023-05-04T04:27:10.681Z,101735.02
2023-05-04T04:29:39.811Z,101735.94
2023-05-04T04:32:08.782Z,101733.98
2023-05-04T04:34:37.381Z,101725.64
2023-05-04T04:37:06.234Z,101724.15
2023-05-04T04:39:34.463Z,101725.06
2023-05-04T04:42:02.990Z,101745.11
2023-05-04T04:44:31.144Z,101742.44
2023-05-04T04:46:59.620Z,101740.19
2023-05-04T04:49:27.993Z,101746.34
2023-05-04T04:51:56.266Z,101745.63
2023-05-04T04:54:24.573Z,101747.20
2023-05-04T04:56:53.780Z,101748.79
2023-05-04T04:59:25.031Z,101755.20
2023-05-04T05:01:53.288Z,101766.61
2023-05-04T05:04:22.875Z,101764.21
2023-05-04T05:06:51.845Z,101769.19
2023-05-04T05:09:20.021Z,101769.09
2023-05-04T05:11:48.205Z,101772.09
2023-05-04T05:14:16.411Z,101774.36
2023-05-04T05:16:44.676Z,101778.41
2023-05-04T05:19:13.598Z,101783.33
2023-05-04T05:21:41.789Z,101788.13
2023-05-04T05:24:10.181Z,101790.90
2023-05-04T05:26:38.337Z,101790.96
2023-05-04T05:29:06.589Z,101795.30
2023-05-04T05:31:34.981Z,101795.84
2023-05-04T05:34:03.255Z,101798.35
2023-05-04T05:36:31.505Z,101802.02
2023-05-04T05:38:59.740Z,101803.13
2023-05-04T05:41:27.898Z,101807.54
2023-05-04T05:43:56.120Z,101801.84
2023-05-04T05:46:25.337Z,101797.52
2023-05-04T05:48:53.621Z,101796.71
2023-05-04T05:51:21.788Z,101797.34
2023-05-04T05:53:50.147Z,101794.86
2023-05-04T05:56:18.421Z,101798.85
2023-05-04T05:58:46.601Z,101800.69
2023-05-04T06:01:15.067Z,101798.80
2023-05-04T06:03:43.556Z,101799.92
2023-05-04T06:06:12.533Z,101802.66
2023-05-04T06:08:41.685Z,101799.23
2023-05-04T06:11:09.865Z,101798.05
2023-05-04T06:13:38.049Z,101799.29
2023-05-04T06:16:06.435Z,101802.68
2023-05-04T06:18:34.648Z,101798.77
2023-05-04T06:21:02.951Z,101794.49
2023-05-04T06:23:31.596Z,101791.19
2023-05-04T06:25:59.878Z,101796.42
2023-05-04T06:28:28.076Z,101796.38
2023-05-04T06:30:56.883Z,101799.45
2023-05-04T06:33:25.130Z,101798.39
2023-05-04T06:35:53.857Z,101795.77
2023-05-04T06:38:22.231Z,101798.91
2023-05-04T06:40:50.441Z,101798.00
2023-05-04T06:43:18.867Z,101802.70
2023-05-04T06:45:47.156Z,101795.73
2023-05-04T06:48:15.420Z,101790.33
2023-05-04T06:50:43.600Z,101791.05
2023-05-04T06:53:12.134Z,101795.34
2023-05-04T06:55:40.385Z,101801.02
2023-05-04T06:58:08.747Z,101804.44
2023-05-04T07:00:37.115Z,101801.88
2023-05-04T07:03:05.550Z,101799.30
2023-05-04T07:05:35.992Z,101798.17
2023-05-04T07:08:04.500Z,101800.01
2023-05-04T07:10:33.008Z,101793.39
2023-05-04T07:13:02.221Z,101797.33
2023-05-04T07:15:30.508Z,101794.27
2023-05-04T07:17:58.839Z,101794.05
2023-05-04T07:20:27.571Z,101794.03
2023-05-04T07:22:59.029Z,101797.92
2023-05-04T07:25:28.084Z,101798.65
2023-05-04T07:27:56.453Z,101801.81
2023-05-04T07:30:24.823Z,101800.68
2023-05-04T07:32:53.269Z,101795.95
2023-05-04T07:35:21.683Z,101795.36
2023-05-04T07:37:50.130Z,101796.58
2023-05-04T07:40:18.496Z,101800.83
2023-05-04T07:42:46.801Z,101799.65
2023-05-04T07:45:17.086Z,101796.02
2023-05-04T07:47:45.373Z,101796.36
2023-05-04T07:50:14.105Z,101798.96
2023-05-04T07:52:42.856Z,101801.08
2023-05-04T07:55:11.292Z,101800.63
2023-05-04T07:57:40.095Z,101799.16
2023-05-04T08:00:09.947Z,101807.79
2023-05-04T08:02:38.263Z,101802.21
2023-05-04T08:05:07.369Z,101804.39
2023-05-04T08:07:35.723Z,101802.09
2023-05-04T08:10:04.577Z,101794.52
2023-05-04T08:12:33.242Z,101784.20
2023-05-04T08:15:01.384Z,101780.42
2023-05-04T08:17:29.972Z,101792.41
2023-05-04T08:19:58.325Z,101799.95
2023-05-04T08:22:26.734Z,101799.98
2023-05-04T08:24:55.096Z,101796.03
2023-05-04T08:27:23.518Z,101797.05
2023-05-04T08:29:51.793Z,101804.08
2023-05-04T08:32:19.998Z,101808.95
2023-05-04T08:34:48.200Z,101819.14
2023-05-04T08:37:16.389Z,101827.81
2023-05-04T08:39:44.764Z,101824.04
2023-05-04T08:42:13.079Z,101821.21
2023-05-04T08:44:43.372Z,101819.23
2023-05-04T08:47:12.576Z,101816.55
2023-05-04T08:49:40.753Z,101808.97
2023-05-04T08:52:09.111Z,101810.09
2023-05-04T08:54:39.878Z,101801.20
2023-05-04T08:57:08.157Z,101801.41
2023-05-04T08:59:37.720Z,101806.77
2023-05-04T09:02:06.707Z,101813.94
2023-05-04T09:04:35.074Z,101810.86
2023-05-04T09:07:03.672Z,101806.39
2023-05-04T09:09:31.980Z,101811.03
2023-05-04T09:12:00.500Z,101816.52
2023-05-04T09:14:35.923Z,101796.09
2023-05-04T09:17:13.672Z,101793.68
2023-05-04T09:19:44.313Z,101790.13
2023-05-04T09:22:17.456Z,101797.51
2023-05-04T09:24:46.697Z,101793.99
2023-05-04T09:27:18.716Z,101785.49
2023-05-04T09:29:53.753Z,101779.67
2023-05-04T09:32:22.014Z,101784.98
2023-05-04T09:34:54.016Z,101782.42
2023-05-04T09:37:22.660Z,101774.07
2023-05-04T09:39:56.382Z,101763.63
2023-05-04T09:42:26.908Z,101789.29
2023-05-04T09:45:13.917Z,101767.34
2023-05-04T09:47:42.230Z,101749.88
2023-05-04T09:50:23.046Z,101737.63
2023-05-04T09:52:51.579Z,101712.70
2023-05-04T09:55:20.629Z,101709.70
2023-05-04T09:57:50.570Z,101737.52
2023-05-04T10:00:19.937Z,101759.55
2023-05-04T10:02:49.434Z,101764.66
2023-05-04T10:05:19.036Z,101744.22
2023-05-04T10:07:47.548Z,101724.92
2023-05-04T10:10:16.021Z,101723.96
2023-05-04T10:12:47.160Z,101738.77
2023-05-04T10:15:16.317Z,101744.88
2023-05-04T10:18:02.737Z,101755.70
2023-05-04T10:24:08.013Z,101718.92
2023-05-04T10:26:47.923Z,101730.38
2023-05-04T10:29:24.490Z,101741.40
2023-05-04T10:31:53.657Z,101740.65
2023-05-04T10:34:28.988Z,101739.40
2023-05-04T10:36:58.201Z,101728.73
2023-05-04T10:39:31.576Z,101715.48
2023-05-04T10:42:06.473Z,101702.45
2023-05-04T10:44:52.363Z,101673.17
2023-05-04T10:47:34.801Z,101661.77
2023-05-04T10:50:04.870Z,101665.77
2023-05-04T10:52:45.243Z,101672.17
2023-05-04T10:55:14.151Z,101672.73
2023-05-04T10:57:51.964Z,101661.77
2023-05-04T11:00:20.891Z,101648.55
2023-05-04T11:02:49.942Z,101657.72
2023-05-04T11:05:20.492Z,101656.56
2023-05-04T11:07:53.495Z,101657.48
2023-05-04T11:10:26.131Z,101653.26
2023-05-04T11:13:02.215Z,101656.91
2023-05-04T11:15:33.076Z,101656.30
2023-05-04T11:18:01.355Z,101654.05
2023-05-04T11:20:29.538Z,101657.58
2023-05-04T11:22:58.896Z,101656.48
2023-05-04T11:25:28.214Z,101657.42
2023-05-04T11:27:58.971Z,101656.80
2023-05-04T11:30:32.795Z,101662.09
2023-05-04T11:33:02.555Z,101657.30
2023-05-04T11:35:31.132Z,101654.20
2023-05-04T11:37:59.512Z,101647.45
2023-05-04T11:40:27.968Z,101645.47
2023-05-04T11:42:57.905Z,101642.46
2023-05-04T11:45:32.984Z,101634.33
2023-05-04T11:48:02.007Z,101627.55
2023-05-04T11:50:30.443Z,101617.60
2023-05-04T11:53:09.624Z,101612.77
2023-05-04T11:55:38.439Z,101604.31
2023-05-04T11:58:07.643Z,101602.55
2023-05-04T12:00:40.133Z,101604.06
2023-05-04T12:03:09.560Z,101608.06
2023-05-04T12:05:38.105Z,101606.02
2023-05-04T12:08:07.722Z,101600.05
2023-05-04T12:10:35.970Z,101600.40
2023-05-04T12:13:04.319Z,101588.57
2023-05-04T12:15:35.740Z,101590.04
2023-05-04T12:18:04.185Z,101588.70
2023-05-04T12:20:33.068Z,101592.02
2023-05-04T12:23:08.708Z,101589.35
2023-05-04T12:25:44.154Z,101591.81
2023-05-04T12:28:16.407Z,101588.52
2023-05-04T12:30:44.688Z,101587.71
2023-05-04T12:33:12.911Z,101585.65
2023-05-04T12:35:41.111Z,101586.98
2023-05-04T12:38:09.696Z,101589.77
2023-05-04T12:40:38.983Z,101580.91
2023-05-04T12:43:07.194Z,101582.80
2023-05-04T12:45:35.565Z,101578.66
2023-05-04T12:48:03.875Z,101576.77
2023-05-04T12:50:32.237Z,101573.67
2023-05-04T12:53:00.621Z,101569.42
2023-05-04T12:55:28.827Z,101561.48
2023-05-04T12:57:58.105Z,101559.84
2023-05-04T13:00:26.294Z,101558.08
2023-05-04T13:02:54.724Z,101561.27
2023-05-04T13:05:23.590Z,101556.74
2023-05-04T13:07:53.377Z,101556.64
2023-05-04T13:10:21.990Z,101552.49
2023-05-04T13:12:50.284Z,101552.29
2023-05-04T13:15:18.701Z,101550.65
2023-05-04T13:17:47.090Z,101551.95
2023-05-04T13:20:16.062Z,101556.56
2023-05-04T13:22:46.719Z,101554.20
2023-05-04T13:25:15.282Z,101553.85
2023-05-04T13:27:44.491Z,101552.35
2023-05-04T13:30:12.970Z,101550.42
2023-05-04T13:32:42.244Z,101544.33
2023-05-04T13:35:10.591Z,101542.35
2023-05-04T13:37:38.857Z,101539.85
2023-05-04T13:40:07.678Z,101542.45
2023-05-04T13:42:37.181Z,101539.36
2023-05-04T13:45:07.763Z,101538.01
2023-05-04T13:47:40.341Z,101534.08
2023-05-04T13:50:08.994Z,101534.59
2023-05-04T13:52:37.481Z,101537.55
2023-05-04T13:55:06.232Z,101539.23
2023-05-04T13:57:34.624Z,101540.81
2023-05-04T14:00:07.911Z,101542.92
2023-05-04T14:02:36.792Z,101543.30
2023-05-04T14:05:05.563Z,101540.70
2023-05-04T14:07:34.998Z,101541.98
2023-05-04T14:10:03.854Z,101543.87
2023-05-04T14:12:32.220Z,101547.36
2023-05-04T14:15:01.516Z,101543.83
2023-05-04T14:17:29.688Z,101538.09
2023-05-04T14:19:59.092Z,101534.44
2023-05-04T14:22:28.330Z,101530.91
2023-05-04T14:24:56.661Z,101532.84
2023-05-04T14:27:24.956Z,101532.82
2023-05-04T14:29:53.310Z,101532.19
2023-05-04T14:32:21.546Z,101531.04
2023-05-04T14:34:50.247Z,101532.43
2023-05-04T14:37:18.557Z,101529.62
2023-05-04T14:39:47.398Z,101531.56
2023-05-04T14:42:15.650Z,101531.07
2023-05-04T14:44:43.872Z,101530.88
2023-05-04T14:47:12.095Z,101527.27
2023-05-04T14:49:42.935Z,101525.85
2023-05-04T14:52:11.423Z,101527.47
2023-05-04T14:54:39.628Z,101525.73
2023-05-04T14:57:09.405Z,101525.55
2023-05-04T14:59:38.739Z,101524.27
2023-05-04T15:02:08.323Z,101523.06
2023-05-04T15:04:36.785Z,101521.01
2023-05-04T15:07:09.679Z,101521.35
2023-05-04T15:09:38.384Z,101520.44
2023-05-04T15:12:07.866Z,101519.91
2023-05-04T15:14:36.836Z,101522.34
2023-05-04T15:17:05.791Z,101523.23
2023-05-04T15:19:37.273Z,101527.02
2023-05-04T15:22:08.297Z,101526.98
2023-05-04T15:24:36.584Z,101527.56
2023-05-04T15:27:04.797Z,101528.54
2023-05-04T15:29:33.134Z,101525.23
2023-05-04T15:32:01.392Z,101521.91
2023-05-04T15:34:29.658Z,101520.06
2023-05-04T15:36:57.837Z,101517.12
2023-05-04T15:39:26.736Z,101517.67
2023-05-04T15:41:54.943Z,101515.17
2023-05-04T15:44:23.712Z,101512.37
2023-05-04T15:46:51.937Z,101512.41
2023-05-04T15:49:20.227Z,101515.14
2023-05-04T15:51:48.545Z,101516.50
2023-05-04T15:54:16.806Z,101513.48
2023-05-04T15:56:45.104Z,101515.16
2023-05-04T15:59:15.160Z,101521.20
2023-05-04T16:01:43.611Z,101518.46
2023-05-04T16:04:12.218Z,101515.40
2023-05-04T16:06:40.579Z,101515.55
2023-05-04T16:09:08.853Z,101516.64
2023-05-04T16:11:37.693Z,101514.45
2023-05-04T16:14:05.940Z,101520.48
2023-05-04T16:16:34.344Z,101515.42
2023-05-04T16:19:02.572Z,101514.04
2023-05-04T16:21:30.782Z,101513.17
2023-05-04T16:23:58.992Z,101515.38
2023-05-04T16:26:27.219Z,101518.11
2023-05-04T16:28:55.841Z,101515.23
2023-05-04T16:31:24.124Z,101516.05
2023-05-04T16:33:52.652Z,101513.02
2023-05-04T16:36:20.916Z,101514.80
2023-05-04T16:38:49.081Z,101516.44
2023-05-04T16:41:18.423Z,101519.67
2023-05-04T16:43:47.617Z,101519.70
2023-05-04T16:46:16.141Z,101516.27
2023-05-04T16:48:44.373Z,101514.84
2023-05-04T16:51:13.642Z,101514.05
2023-05-04T16:53:42.417Z,101517.98
2023-05-04T16:56:17.481Z,101520.52
2023-05-04T16:58:45.999Z,101521.92
2023-05-04T17:01:14.271Z,101525.46
2023-05-04T17:03:42.910Z,101523.74
2023-05-04T17:06:11.199Z,101523.77
2023-05-04T17:08:39.371Z,101524.13
2023-05-04T17:11:07.825Z,101526.41
2023-05-04T17:13:36.400Z,101527.83
2023-05-04T17:16:04.978Z,101530.28
2023-05-04T17:18:33.296Z,101533.86
2023-05-04T17:21:01.549Z,101531.97
2023-05-04T17:23:29.828Z,101534.28
2023-05-04T17:25:58.114Z,101533.94
2023-05-04T17:28:26.355Z,101532.95
2023-05-04T17:30:54.601Z,101532.88
2023-05-04T17:33:24.006Z,101530.60
2023-05-04T17:35:52.353Z,101530.87
2023-05-04T17:38:20.580Z,101530.14
2023-05-04T17:40:49.117Z,101530.95
2023-05-04T17:43:17.487Z,101531.71
2023-05-04T17:45:45.764Z,101538.32
2023-05-04T17:48:13.908Z,101541.52
2023-05-04T17:50:42.292Z,101539.98
2023-05-04T17:53:10.873Z,101539.60
2023-05-04T17:55:39.074Z,101538.98
2023-05-04T17:58:07.251Z,101536.35
2023-05-04T18:00:35.654Z,101536.34
2023-05-04T18:03:04.223Z,101535.88
2023-05-04T18:05:32.609Z,101537.59
2023-05-04T18:08:01.064Z,101537.66
2023-05-04T18:10:29.305Z,101543.05
2023-05-04T18:13:00.447Z,101544.69
2023-05-04T18:15:28.707Z,101546.77
2023-05-04T18:17:56.974Z,101554.92
2023-05-04T18:20:25.275Z,101564.50
2023-05-04T18:22:53.555Z,101566.40
2023-05-04T18:25:22.153Z,101568.14
2023-05-04T18:27:50.572Z,101572.89
2023-05-04T18:30:18.873Z,101577.12
2023-05-04T18:32:47.166Z,101579.33
2023-05-04T18:35:17.226Z,101583.46
2023-05-04T18:37:45.506Z,101585.89
2023-05-04T18:40:14.414Z,101586.33
2023-05-04T18:42:42.659Z,101594.55
2023-05-04T18:45:11.570Z,101599.89
2023-05-04T18:47:39.797Z,101600.27
2023-05-04T18:50:08.967Z,101602.25
2023-05-04T18:52:37.465Z,101601.21
2023-05-04T18:55:06.113Z,101602.85
2023-05-04T18:57:34.414Z,101600.55
2023-05-04T19:00:02.689Z,101600.90
2023-05-04T19:02:31.797Z,101602.30
2023-05-04T19:05:00.060Z,101605.34
2023-05-04T19:07:28.393Z,101610.80
2023-05-04T19:09:56.619Z,101618.69
2023-05-04T19:12:24.843Z,101621.48
2023-05-04T19:14:53.062Z,101623.02
2023-05-04T19:17:21.363Z,101621.39
2023-05-04T19:19:49.724Z,101618.16
2023-05-04T19:22:18.053Z,101614.52
2023-05-04T19:24:50.812Z,101619.36
2023-05-04T19:27:19.207Z,101625.11
2023-05-04T19:29:47.483Z,101626.55
2023-05-04T19:32:23.567Z,101628.92
2023-05-04T19:34:52.409Z,101627.80
2023-05-04T19:37:21.158Z,101631.52
2023-05-04T19:39:49.949Z,101628.67
2023-05-04T19:42:18.168Z,101627.04
2023-05-04T19:44:46.422Z,101623.94
2023-05-04T19:47:14.690Z,101623.94
2023-05-04T19:49:46.550Z,101624.75
2023-05-04T19:52:15.242Z,101625.52
2023-05-04T19:54:43.962Z,101625.94
2023-05-04T19:57:12.202Z,101629.61
2023-05-04T19:59:40.528Z,101630.41
2023-05-04T20:02:08.974Z,101632.48
2023-05-04T20:04:37.327Z,101631.30
2023-05-04T20:07:05.534Z,101632.88
2023-05-04T20:09:33.732Z,101630.36
2023-05-04T20:12:02.020Z,101629.52
2023-05-04T20:14:30.373Z,101626.88
2023-05-04T20:16:58.787Z,101621.23
2023-05-04T20:19:27.709Z,101618.77
2023-05-04T20:21:55.905Z,101620.79
2023-05-04T20:24:24.202Z,101619.30
2023-05-04T20:26:52.451Z,101623.00
2023-05-04T20:29:21.325Z,101623.26
2023-05-04T20:31:49.556Z,101625.30
2023-05-04T20:34:18.997Z,101625.00
2023-05-04T20:36:47.517Z,101625.11
2023-05-04T20:39:15.970Z,101624.70
2023-05-04T20:41:44.229Z,101622.63
2023-05-04T20:44:12.385Z,101625.63
2023-05-04T20:46:40.845Z,101626.33
2023-05-04T20:49:09.319Z,101623.67
2023-05-04T20:51:37.830Z,101628.00
2023-05-04T20:54:06.131Z,101630.36
2023-05-04T20:56:34.313Z,101629.34
2023-05-04T20:59:02.548Z,101630.79
2023-05-04T21:01:30.946Z,101627.61
2023-05-04T21:03:59.224Z,101629.20
2023-05-04T21:06:27.603Z,101629.58
2023-05-04T21:08:57.248Z,101626.40
2023-05-04T21:11:25.492Z,101627.57
2023-05-04T21:13:54.016Z,101629.91
2023-05-04T21:16:22.209Z,101633.97
2023-05-04T21:18:50.470Z,101633.58
2023-05-04T21:21:18.738Z,101636.45
2023-05-04T21:23:46.970Z,101634.42
2023-05-04T21:26:15.108Z,101631.98
2023-05-04T21:28:43.372Z,101628.53
2023-05-04T21:31:11.530Z,101628.77
2023-05-04T21:33:39.738Z,101622.34
2023-05-04T21:36:12.857Z,101619.44
2023-05-04T21:38:41.427Z,101613.34
2023-05-04T21:41:13.882Z,101609.41
2023-05-04T21:43:42.989Z,101606.42
2023-05-04T21:46:12.225Z,101604.55
2023-05-04T21:48:40.966Z,101604.66
2023-05-04T21:51:09.210Z,101605.36
2023-05-04T21:53:37.388Z,101604.54
2023-05-04T21:56:09.786Z,101604.63
2023-05-04T21:58:42.257Z,101606.89
2023-05-04T22:01:15.776Z,101609.02
2023-05-04T22:03:44.789Z,101608.46
2023-05-04T22:06:13.409Z,101605.66
2023-05-04T22:08:41.703Z,101603.10
2023-05-04T22:11:09.886Z,101603.98
2023-05-04T22:13:38.136Z,101598.95
2023-05-04T22:16:08.596Z,101596.23
2023-05-04T22:18:36.893Z,101603.58
2023-05-04T22:21:05.113Z,101601.98
2023-05-04T22:23:33.356Z,101605.96
2023-05-04T22:26:01.606Z,101603.79
2023-05-04T22:28:29.781Z,101603.36
2023-05-04T22:30:58.781Z,101605.45
2023-05-04T22:33:26.972Z,101602.95
2023-05-04T22:35:55.183Z,101602.37
2023-05-04T22:38:23.453Z,101602.67
2023-05-04T22:40:51.613Z,101600.29
2023-05-04T22:43:19.908Z,101596.10
2023-05-04T22:45:48.156Z,101595.20
2023-05-04T22:48:16.438Z,101593.02
2023-05-04T22:50:44.710Z,101594.38
2023-05-04T22:53:14.706Z,101596.27
2023-05-04T22:55:43.156Z,101593.73
2023-05-04T22:58:11.529Z,101591.17
2023-05-04T23:00:39.869Z,101586.23
2023-05-04T23:03:08.711Z,101582.64
2023-05-04T23:05:37.521Z,101583.68
2023-05-04T23:08:05.918Z,101580.73
2023-05-04T23:10:35.783Z,101581.52
2023-05-04T23:13:03.991Z,101581.54
2023-05-04T23:15:32.959Z,101588.02
2023-05-04T23:18:01.303Z,101593.02
2023-05-04T23:20:29.814Z,101594.67
2023-05-04T23:22:57.999Z,101594.46
2023-05-04T23:25:26.245Z,101589.55
2023-05-04T23:27:54.481Z,101588.37
2023-05-04T23:30:22.690Z,101589.63
2023-05-04T23:32:51.067Z,101584.04
2023-05-04T23:35:19.334Z,101580.35
2023-05-04T23:37:47.603Z,101579.16
2023-05-04T23:40:15.811Z,101572.45
2023-05-04T23:42:43.943Z,101574.73
2023-05-04T23:45:12.382Z,101576.64
2023-05-04T23:47:40.605Z,101573.31
2023-05-04T23:50:09.418Z,101572.77
2023-05-04T23:52:37.863Z,101572.29
2023-05-04T23:55:06.781Z,101570.40
2023-05-04T23:57:34.932Z,101568.97
